Rosboro, Arkansas
Current Conditions -  °F | °C
As of 3:56 PM on Sunday 25 Jan 2015 (Local Time) from KADF Reporting Station
Scattered Clouds Scattered Clouds  
Wind Chill: 58°   Ceiling: Unl
Heat Index: 58°   Visibility: 10mi
Dew Point: 35°   Wind: 15mph
Humidity: 42%   Direction: 290°WNW
Pressure: 29.89"   Gusts: NA
Location:  34.2417°N, 93.3579°W
Report Text: KADF 252156Z AUTO 29013KT 10SM SCT075 14/02 A2989 RMK AO2 T01440016 SLP136
Loading
Personal Weather Stations






























Interactive Weather Map New forecast layout! Learn more

10-Day Weather Forecast

Advertisements
Track Severe Weather on mobile